createdAt,value
2022-10-23T00:02:05.255Z,100.00
2022-10-23T00:04:53.485Z,100.00
2022-10-23T00:07:41.358Z,100.00
2022-10-23T00:10:29.686Z,100.00
2022-10-23T00:13:17.550Z,100.00
2022-10-23T00:16:08.255Z,100.00
2022-10-23T00:18:56.202Z,100.00
2022-10-23T00:21:44.166Z,100.00
2022-10-23T00:24:32.045Z,100.00
2022-10-23T00:27:20.183Z,100.00
2022-10-23T00:30:09.013Z,100.00
2022-10-23T00:32:58.257Z,100.00
2022-10-23T00:35:46.137Z,100.00
2022-10-23T00:38:34.020Z,100.00
2022-10-23T00:41:24.335Z,100.00
2022-10-23T00:44:50.658Z,100.00
2022-10-23T00:47:40.269Z,100.00
2022-10-23T00:50:30.612Z,100.00
2022-10-23T00:53:21.266Z,100.00
2022-10-23T00:56:09.172Z,100.00
2022-10-23T00:58:57.068Z,100.00
2022-10-23T01:01:45.263Z,100.00
2022-10-23T01:04:35.783Z,100.00
2022-10-23T01:07:30.091Z,100.00
2022-10-23T01:10:25.725Z,100.00
2022-10-23T01:13:21.351Z,100.00
2022-10-23T01:16:15.143Z,100.00
2022-10-23T01:19:13.223Z,100.00
2022-10-23T01:22:12.714Z,100.00
2022-10-23T01:25:08.210Z,100.00
2022-10-23T01:28:02.268Z,100.00
2022-10-23T01:30:50.635Z,100.00
2022-10-23T01:33:43.857Z,100.00
2022-10-23T01:36:34.078Z,100.00
2022-10-23T01:39:27.370Z,100.00
2022-10-23T01:42:20.049Z,100.00
2022-10-23T01:45:14.547Z,100.00
2022-10-23T01:48:07.610Z,100.00
2022-10-23T01:51:01.582Z,100.00
2022-10-23T01:53:53.515Z,100.00
2022-10-23T01:56:46.032Z,100.00
2022-10-23T01:59:39.126Z,100.00
2022-10-23T02:02:32.057Z,100.00
2022-10-23T02:05:24.821Z,100.00
2022-10-23T02:08:13.185Z,100.00
2022-10-23T02:11:08.896Z,100.00
2022-10-23T02:14:02.788Z,100.00
2022-10-23T02:16:53.577Z,100.00
2022-10-23T02:19:48.010Z,100.00
2022-10-23T02:22:42.395Z,100.00
2022-10-23T02:25:34.777Z,100.00
2022-10-23T02:28:27.843Z,100.00
2022-10-23T02:31:23.051Z,100.00
2022-10-23T02:34:11.045Z,100.00
2022-10-23T02:37:00.265Z,100.00
2022-10-23T02:39:49.135Z,100.00
2022-10-23T02:42:44.571Z,100.00
2022-10-23T02:48:42.604Z,100.00
2022-10-23T02:51:38.030Z,100.00
2022-10-23T02:54:44.235Z,100.00
2022-10-23T02:57:35.516Z,100.00
2022-10-23T03:00:24.838Z,100.00
2022-10-23T03:03:15.921Z,100.00
2022-10-23T03:06:04.149Z,100.00
2022-10-23T03:08:55.724Z,100.00
2022-10-23T03:11:47.400Z,100.00
2022-10-23T03:14:35.418Z,100.00
2022-10-23T03:17:25.291Z,100.00
2022-10-23T03:20:16.669Z,100.00
2022-10-23T03:23:05.559Z,100.00
2022-10-23T03:25:54.323Z,100.00
2022-10-23T03:28:54.535Z,100.00
2022-10-23T03:31:43.973Z,100.00
2022-10-23T03:34:31.836Z,100.00
2022-10-23T03:37:19.780Z,100.00
2022-10-23T03:40:09.053Z,100.00
2022-10-23T03:42:56.950Z,100.00
2022-10-23T03:45:46.286Z,100.00
2022-10-23T03:48:38.082Z,100.00
2022-10-23T03:51:26.642Z,100.00
2022-10-23T03:54:14.521Z,100.00
2022-10-23T03:57:02.786Z,100.00
2022-10-23T03:59:50.844Z,100.00
2022-10-23T04:02:40.626Z,100.00
2022-10-23T04:05:28.828Z,100.00
2022-10-23T04:08:20.370Z,100.00
2022-10-23T04:11:10.882Z,100.00
2022-10-23T04:14:06.067Z,100.00
2022-10-23T04:16:54.340Z,100.00
2022-10-23T04:19:43.561Z,100.00
2022-10-23T04:22:31.589Z,100.00
2022-10-23T04:25:19.488Z,100.00
2022-10-23T04:28:07.525Z,100.00
2022-10-23T04:30:59.039Z,100.00
2022-10-23T04:33:47.003Z,100.00
2022-10-23T04:36:49.875Z,100.00
2022-10-23T04:39:38.342Z,100.00
2022-10-23T04:45:15.120Z,100.00
2022-10-23T04:48:03.651Z,100.00
2022-10-23T04:51:06.473Z,100.00
2022-10-23T04:54:14.418Z,100.00
2022-10-23T04:57:18.524Z,100.00
2022-10-23T05:00:16.739Z,100.00
2022-10-23T05:03:15.139Z,100.00
2022-10-23T05:06:03.466Z,100.00
2022-10-23T05:09:05.313Z,100.00
2022-10-23T05:12:05.243Z,100.00
2022-10-23T05:14:53.209Z,100.00
2022-10-23T05:17:45.000Z,100.00
2022-10-23T05:20:37.815Z,100.00
2022-10-23T05:23:27.529Z,100.00
2022-10-23T05:26:19.955Z,100.00
2022-10-23T05:29:11.313Z,100.00
2022-10-23T05:32:04.164Z,100.00
2022-10-23T05:34:52.874Z,100.00
2022-10-23T05:37:44.575Z,100.00
2022-10-23T05:43:36.963Z,100.00
2022-10-23T05:46:52.259Z,100.00
2022-10-23T05:50:05.927Z,100.00
2022-10-23T05:53:12.790Z,100.00
2022-10-23T05:56:25.457Z,100.00
2022-10-23T05:59:27.393Z,100.00
2022-10-23T06:02:23.264Z,100.00
2022-10-23T06:04:56.705Z,100.00
2022-10-23T06:07:45.316Z,100.00
2022-10-23T06:10:13.956Z,100.00
2022-10-23T06:12:45.635Z,100.00
2022-10-23T06:15:16.849Z,100.00
2022-10-23T06:18:03.153Z,100.00
2022-10-23T06:20:37.081Z,100.00
2022-10-23T06:23:12.696Z,100.00
2022-10-23T06:25:58.881Z,100.00
2022-10-23T06:28:34.971Z,100.00
2022-10-23T06:31:05.975Z,100.00
2022-10-23T06:33:35.369Z,100.00
2022-10-23T06:36:06.193Z,100.00
2022-10-23T06:38:36.770Z,100.00
2022-10-23T06:41:05.674Z,100.00
2022-10-23T06:43:37.364Z,100.00
2022-10-23T06:46:29.733Z,100.00
2022-10-23T06:49:17.526Z,100.00
2022-10-23T06:51:48.552Z,100.00
2022-10-23T06:54:18.130Z,100.00
2022-10-23T06:56:52.040Z,100.00
2022-10-23T06:59:23.744Z,100.00
2022-10-23T07:04:27.501Z,100.00
2022-10-23T07:06:56.594Z,100.00
2022-10-23T07:09:30.090Z,100.00
2022-10-23T07:11:57.639Z,100.00
2022-10-23T07:14:33.723Z,100.00
2022-10-23T07:17:03.880Z,100.00
2022-10-23T07:19:32.893Z,100.00
2022-10-23T07:22:15.836Z,100.00
2022-10-23T07:24:48.338Z,100.00
2022-10-23T07:27:27.258Z,100.00
2022-10-23T07:29:57.581Z,100.00
2022-10-23T07:32:28.540Z,100.00
2022-10-23T07:35:16.497Z,100.00
2022-10-23T07:37:56.045Z,100.00
2022-10-23T07:40:25.298Z,100.00
2022-10-23T07:42:57.011Z,100.00
2022-10-23T07:45:24.925Z,100.00
2022-10-23T07:47:53.413Z,100.00
2022-10-23T07:50:25.960Z,100.00
2022-10-23T07:52:53.624Z,100.00
2022-10-23T07:55:24.762Z,100.00
2022-10-23T07:57:59.444Z,100.00
2022-10-23T08:00:39.506Z,100.00
2022-10-23T08:03:14.410Z,100.00
2022-10-23T08:05:43.676Z,100.00
2022-10-23T08:08:11.287Z,100.00
2022-10-23T08:10:41.759Z,100.00
2022-10-23T08:13:14.128Z,100.00
2022-10-23T08:16:04.429Z,100.00
2022-10-23T08:19:09.157Z,100.00
2022-10-23T08:21:41.133Z,100.00
2022-10-23T08:24:13.847Z,100.00
2022-10-23T08:26:43.512Z,100.00
2022-10-23T08:29:12.520Z,100.00
2022-10-23T08:31:40.873Z,100.00
2022-10-23T08:34:21.283Z,100.00
2022-10-23T08:36:52.283Z,100.00
2022-10-23T08:39:19.939Z,100.00
2022-10-23T08:42:21.309Z,100.00
2022-10-23T08:44:58.140Z,100.00
2022-10-23T08:47:32.053Z,100.00
2022-10-23T08:53:06.065Z,100.00
2022-10-23T08:55:36.847Z,100.00
2022-10-23T08:58:10.810Z,100.00
2022-10-23T09:00:38.543Z,100.00
2022-10-23T09:03:06.485Z,100.00
2022-10-23T09:05:42.275Z,100.00
2022-10-23T09:08:25.423Z,100.00
2022-10-23T09:11:02.873Z,100.00
2022-10-23T09:13:51.771Z,100.00
2022-10-23T09:16:30.586Z,100.00
2022-10-23T09:18:58.768Z,100.00
2022-10-23T09:21:28.311Z,100.00
2022-10-23T09:23:57.446Z,100.00
2022-10-23T09:26:25.088Z,100.00
2022-10-23T09:28:55.315Z,100.00
2022-10-23T09:31:23.063Z,100.00
2022-10-23T09:33:58.345Z,100.00
2022-10-23T09:36:29.088Z,100.00
2022-10-23T09:38:59.802Z,100.00
2022-10-23T09:41:30.555Z,100.00
2022-10-23T09:44:03.275Z,100.00
2022-10-23T09:46:39.206Z,100.00
2022-10-23T09:49:07.827Z,100.00
2022-10-23T09:51:35.657Z,100.00
2022-10-23T09:54:04.856Z,100.00
2022-10-23T09:56:35.414Z,100.00
2022-10-23T09:59:06.475Z,100.00
2022-10-23T10:01:36.908Z,100.00
2022-10-23T10:04:39.553Z,100.00
2022-10-23T10:07:19.413Z,100.00
2022-10-23T10:09:49.260Z,100.00
2022-10-23T10:12:31.988Z,100.00
2022-10-23T10:15:07.084Z,100.00
2022-10-23T10:17:40.507Z,100.00
2022-10-23T10:20:24.466Z,100.00
2022-10-23T10:22:56.858Z,100.00
2022-10-23T10:25:33.557Z,100.00
2022-10-23T10:28:18.806Z,100.00
2022-10-23T10:30:55.356Z,100.00
2022-10-23T10:33:29.678Z,100.00
2022-10-23T10:36:03.735Z,100.00
2022-10-23T10:38:49.783Z,100.00
2022-10-23T10:41:38.401Z,100.00
2022-10-23T10:44:25.278Z,100.00
2022-10-23T10:46:59.260Z,100.00
2022-10-23T10:49:39.101Z,100.00
2022-10-23T10:52:26.519Z,100.00
2022-10-23T10:55:03.627Z,100.00
2022-10-23T10:57:37.737Z,100.00
2022-10-23T11:00:14.234Z,100.00
2022-10-23T11:02:46.828Z,100.00
2022-10-23T11:05:22.879Z,100.00
2022-10-23T11:07:56.286Z,100.00
2022-10-23T11:10:24.173Z,100.00
2022-10-23T11:12:53.371Z,100.00
2022-10-23T11:15:25.604Z,100.00
2022-10-23T11:17:57.555Z,99.41
2022-10-23T11:20:45.947Z,97.56
2022-10-23T11:23:58.648Z,100.00
2022-10-23T11:26:41.933Z,100.00
2022-10-23T11:29:41.460Z,94.12
2022-10-23T11:32:27.515Z,89.87
2022-10-23T11:35:15.564Z,91.71
2022-10-23T11:37:43.766Z,88.30
2022-10-23T11:40:23.987Z,92.38
2022-10-23T11:42:52.158Z,90.18
2022-10-23T11:45:34.171Z,88.73
2022-10-23T11:48:03.688Z,91.13
2022-10-23T11:50:33.907Z,90.44
2022-10-23T11:53:15.984Z,87.45
2022-10-23T11:56:01.259Z,89.58
2022-10-23T11:58:41.334Z,89.06
2022-10-23T12:01:25.780Z,88.76
2022-10-23T12:03:56.569Z,90.28
2022-10-23T12:06:29.062Z,91.99
2022-10-23T12:09:00.979Z,95.91
2022-10-23T12:11:41.594Z,96.18
2022-10-23T12:14:28.574Z,89.18
2022-10-23T12:16:57.867Z,86.38
2022-10-23T12:19:28.054Z,90.06
2022-10-23T12:21:59.104Z,84.69
2022-10-23T12:24:39.883Z,89.21
2022-10-23T12:27:17.847Z,86.33
2022-10-23T12:30:04.366Z,86.17
2022-10-23T12:32:47.147Z,87.01
2022-10-23T12:36:05.870Z,90.47
2022-10-23T12:38:36.316Z,93.39
2022-10-23T12:41:12.016Z,95.34
2022-10-23T12:43:41.224Z,94.11
2022-10-23T12:46:26.906Z,94.86
2022-10-23T12:48:57.890Z,95.29
2022-10-23T12:51:27.777Z,86.96
2022-10-23T12:53:55.828Z,90.66
2022-10-23T12:56:23.406Z,89.21
2022-10-23T12:58:54.524Z,90.85
2022-10-23T13:01:28.143Z,90.69
2022-10-23T13:04:12.922Z,89.10
2022-10-23T13:06:41.315Z,87.99
2022-10-23T13:09:19.686Z,84.70
2022-10-23T13:11:59.755Z,85.04
2022-10-23T13:14:32.894Z,82.40
2022-10-23T13:17:02.030Z,84.80
2022-10-23T13:19:31.145Z,82.19
2022-10-23T13:21:59.651Z,83.52
2022-10-23T13:24:29.417Z,83.75
2022-10-23T13:26:58.151Z,81.52
2022-10-23T13:29:29.713Z,83.02
2022-10-23T13:31:57.937Z,83.39
2022-10-23T13:34:28.170Z,83.38
2022-10-23T13:37:04.131Z,81.39
2022-10-23T13:39:33.165Z,83.85
2022-10-23T13:42:13.404Z,86.64
2022-10-23T13:47:13.267Z,81.78
2022-10-23T13:49:40.908Z,82.84
2022-10-23T13:54:40.978Z,86.77
2022-10-23T13:57:14.032Z,98.96
2022-10-23T13:59:41.960Z,100.00
2022-10-23T14:02:18.772Z,100.00
2022-10-23T14:04:47.167Z,100.00
2022-10-23T14:07:16.501Z,100.00
2022-10-23T14:09:44.281Z,100.00
2022-10-23T14:12:13.478Z,100.00
2022-10-23T14:14:41.157Z,100.00
2022-10-23T14:17:08.877Z,100.00
2022-10-23T14:22:05.030Z,92.52
2022-10-23T14:24:34.027Z,89.83
2022-10-23T14:27:01.637Z,89.87
2022-10-23T14:29:29.409Z,88.03
2022-10-23T14:31:57.003Z,85.83
2022-10-23T14:34:24.615Z,78.45
2022-10-23T14:37:07.407Z,77.89
2022-10-23T14:39:37.506Z,78.87
2022-10-23T14:42:05.386Z,78.94
2022-10-23T14:44:33.042Z,79.89
2022-10-23T14:47:00.790Z,76.45
2022-10-23T14:49:28.413Z,77.13
2022-10-23T14:51:56.055Z,74.10
2022-10-23T14:54:23.723Z,78.51
2022-10-23T14:56:52.645Z,74.93
2022-10-23T14:59:20.287Z,81.81
2022-10-23T15:01:48.628Z,84.35
2022-10-23T15:04:16.725Z,83.71
2022-10-23T15:06:44.992Z,80.90
2022-10-23T15:09:12.646Z,80.69
2022-10-23T15:11:40.704Z,82.17
2022-10-23T15:14:09.631Z,85.45
2022-10-23T15:16:41.373Z,85.25
2022-10-23T15:19:13.527Z,82.70
2022-10-23T15:21:45.126Z,84.74
2022-10-23T15:24:12.780Z,84.77
2022-10-23T15:26:42.922Z,82.75
2022-10-23T15:29:12.559Z,86.92
2022-10-23T15:31:45.741Z,92.94
2022-10-23T15:34:15.253Z,88.33
2022-10-23T15:36:44.744Z,87.91
2022-10-23T15:39:13.732Z,90.04
2022-10-23T15:41:43.179Z,87.65
2022-10-23T15:44:14.541Z,95.03
2022-10-23T15:46:42.358Z,88.37
2022-10-23T15:49:10.390Z,94.35
2022-10-23T15:51:39.447Z,90.80
2022-10-23T15:54:08.071Z,85.38
2022-10-23T15:56:36.404Z,89.04
2022-10-23T15:59:04.385Z,90.47
2022-10-23T16:01:33.487Z,83.88
2022-10-23T16:04:01.367Z,84.62
2022-10-23T16:06:28.976Z,83.77
2022-10-23T16:08:56.602Z,85.26
2022-10-23T16:11:26.812Z,89.49
2022-10-23T16:13:55.776Z,88.27
2022-10-23T16:16:23.518Z,88.20
2022-10-23T16:18:52.703Z,90.67
2022-10-23T16:21:22.941Z,87.47
2022-10-23T16:23:51.578Z,84.62
2022-10-23T16:26:20.488Z,85.60
2022-10-23T16:28:49.861Z,86.17
2022-10-23T16:31:20.515Z,84.27
2022-10-23T16:33:48.978Z,86.12
2022-10-23T16:36:19.227Z,85.03
2022-10-23T16:39:10.528Z,88.14
2022-10-23T16:41:57.001Z,86.70
2022-10-23T16:44:29.199Z,84.97
2022-10-23T16:46:58.906Z,86.25
2022-10-23T16:49:26.655Z,89.51
2022-10-23T16:51:55.659Z,85.71
2022-10-23T16:54:23.310Z,86.44
2022-10-23T16:56:51.101Z,81.76
2022-10-23T16:59:18.748Z,83.01
2022-10-23T17:01:46.494Z,87.52
2022-10-23T17:04:14.163Z,82.63
2022-10-23T17:06:42.093Z,81.90
2022-10-23T17:09:11.029Z,80.62
2022-10-23T17:11:40.663Z,80.37
2022-10-23T17:14:12.175Z,79.38
2022-10-23T17:16:44.337Z,81.46
2022-10-23T17:19:20.518Z,81.15
2022-10-23T17:21:55.750Z,81.11
2022-10-23T17:24:24.935Z,79.24
2022-10-23T17:26:52.918Z,79.12
2022-10-23T17:29:21.858Z,81.58
2022-10-23T17:31:51.498Z,87.37
2022-10-23T17:34:21.801Z,94.64
2022-10-23T17:36:52.245Z,100.00
2022-10-23T17:39:23.230Z,100.00
2022-10-23T17:41:52.570Z,100.00
2022-10-23T17:44:20.248Z,100.00
2022-10-23T17:46:52.136Z,100.00
2022-10-23T17:49:20.257Z,100.00
2022-10-23T17:51:51.500Z,100.00
2022-10-23T17:54:19.476Z,100.00
2022-10-23T17:56:47.113Z,100.00
2022-10-23T17:59:19.005Z,100.00
2022-10-23T18:01:48.125Z,100.00
2022-10-23T18:04:17.624Z,100.00
2022-10-23T18:06:48.029Z,100.00
2022-10-23T18:09:16.032Z,100.00
2022-10-23T18:11:48.176Z,100.00
2022-10-23T18:14:19.334Z,100.00
2022-10-23T18:16:47.168Z,100.00
2022-10-23T18:19:15.458Z,100.00
2022-10-23T18:21:43.034Z,100.00
2022-10-23T18:24:10.814Z,100.00
2022-10-23T18:26:40.835Z,100.00
2022-10-23T18:29:10.056Z,100.00
2022-10-23T18:31:39.875Z,100.00
2022-10-23T18:34:16.771Z,100.00
2022-10-23T18:36:44.441Z,100.00
2022-10-23T18:39:14.326Z,100.00
2022-10-23T18:41:45.927Z,100.00
2022-10-23T18:44:17.255Z,100.00
2022-10-23T18:46:46.681Z,100.00
2022-10-23T18:49:14.939Z,100.00
2022-10-23T18:51:42.713Z,100.00
2022-10-23T18:54:13.529Z,100.00
2022-10-23T18:56:41.283Z,100.00
2022-10-23T18:59:12.627Z,100.00
2022-10-23T19:01:41.120Z,100.00
2022-10-23T19:04:15.658Z,100.00
2022-10-23T19:06:43.713Z,100.00
2022-10-23T19:09:13.755Z,100.00
2022-10-23T19:11:41.910Z,100.00
2022-10-23T19:14:09.940Z,100.00
2022-10-23T19:16:42.313Z,100.00
2022-10-23T19:19:17.111Z,100.00
2022-10-23T19:21:45.236Z,100.00
2022-10-23T19:24:17.114Z,100.00
2022-10-23T19:26:45.283Z,100.00
2022-10-23T19:29:16.467Z,100.00
2022-10-23T19:31:48.796Z,100.00
2022-10-23T19:34:19.952Z,100.00
2022-10-23T19:36:47.918Z,100.00
2022-10-23T19:39:15.629Z,100.00
2022-10-23T19:41:43.271Z,100.00
2022-10-23T19:44:10.860Z,100.00
2022-10-23T19:46:39.510Z,100.00
2022-10-23T19:49:08.698Z,100.00
2022-10-23T19:51:38.087Z,100.00
2022-10-23T19:54:06.456Z,100.00
2022-10-23T19:56:34.176Z,100.00
2022-10-23T19:59:01.792Z,100.00
2022-10-23T20:01:29.555Z,100.00
2022-10-23T20:04:15.942Z,100.00
2022-10-23T20:07:05.169Z,100.00
2022-10-23T20:09:53.061Z,100.00
2022-10-23T20:12:44.453Z,100.00
2022-10-23T20:15:39.600Z,100.00
2022-10-23T20:18:27.727Z,100.00
2022-10-23T20:21:15.923Z,100.00
2022-10-23T20:24:05.373Z,100.00
2022-10-23T20:26:55.760Z,100.00
2022-10-23T20:29:43.867Z,100.00
2022-10-23T20:32:31.751Z,100.00
2022-10-23T20:35:19.651Z,100.00
2022-10-23T20:38:08.112Z,100.00
2022-10-23T20:41:00.217Z,100.00
2022-10-23T20:43:48.102Z,100.00
2022-10-23T20:46:36.180Z,100.00
2022-10-23T20:49:24.478Z,100.00
2022-10-23T20:52:12.357Z,100.00
2022-10-23T20:55:00.257Z,100.00
2022-10-23T20:57:49.441Z,100.00
2022-10-23T21:00:37.291Z,100.00
2022-10-23T21:03:25.155Z,100.00
2022-10-23T21:06:15.247Z,100.00
2022-10-23T21:09:05.845Z,100.00
2022-10-23T21:11:53.743Z,100.00
2022-10-23T21:14:42.933Z,100.00
2022-10-23T21:17:35.465Z,100.00
2022-10-23T21:20:23.860Z,100.00
2022-10-23T21:23:11.838Z,100.00
2022-10-23T21:26:02.285Z,100.00
2022-10-23T21:29:01.153Z,100.00
2022-10-23T21:32:03.879Z,100.00
2022-10-23T21:34:51.759Z,100.00
2022-10-23T21:37:39.667Z,100.00
2022-10-23T21:40:27.546Z,100.00
2022-10-23T21:43:15.821Z,100.00
2022-10-23T21:46:05.426Z,100.00
2022-10-23T21:48:54.879Z,100.00
2022-10-23T21:51:42.751Z,100.00
2022-10-23T21:54:30.621Z,100.00
2022-10-23T21:57:18.627Z,100.00
2022-10-23T22:00:08.846Z,100.00
2022-10-23T22:03:00.537Z,100.00
2022-10-23T22:05:49.734Z,100.00
2022-10-23T22:08:37.624Z,100.00
2022-10-23T22:11:27.150Z,100.00
2022-10-23T22:14:15.006Z,100.00
2022-10-23T22:17:02.927Z,100.00
2022-10-23T22:19:50.791Z,100.00
2022-10-23T22:22:39.997Z,100.00
2022-10-23T22:25:27.864Z,100.00
2022-10-23T22:28:15.738Z,100.00
2022-10-23T22:31:03.603Z,100.00
2022-10-23T22:33:52.140Z,100.00
2022-10-23T22:36:40.500Z,100.00
2022-10-23T22:39:29.932Z,100.00
2022-10-23T22:42:17.784Z,100.00
2022-10-23T22:45:06.503Z,100.00
2022-10-23T22:47:54.376Z,100.00
2022-10-23T22:50:42.220Z,100.00
2022-10-23T22:53:30.176Z,100.00
2022-10-23T22:56:21.866Z,100.00
2022-10-23T22:59:09.769Z,100.00
2022-10-23T23:01:57.654Z,100.00
2022-10-23T23:04:45.521Z,100.00
2022-10-23T23:07:33.383Z,100.00
2022-10-23T23:10:21.276Z,100.00
2022-10-23T23:13:10.486Z,100.00
2022-10-23T23:15:58.513Z,100.00
2022-10-23T23:18:46.427Z,100.00
2022-10-23T23:21:34.469Z,100.00
2022-10-23T23:24:22.383Z,100.00
2022-10-23T23:27:10.268Z,100.00
2022-10-23T23:29:59.496Z,100.00
2022-10-23T23:32:48.544Z,100.00
2022-10-23T23:35:40.694Z,100.00
2022-10-23T23:38:28.683Z,100.00
2022-10-23T23:41:18.873Z,100.00
2022-10-23T23:44:08.271Z,97.47
2022-10-23T23:46:57.709Z,99.12
2022-10-23T23:49:45.564Z,96.90
2022-10-23T23:52:33.452Z,98.67
2022-10-23T23:55:21.370Z,96.79
2022-10-23T23:58:09.319Z,90.76
